sensor_id;sensor_type;location;lat;lon;timestamp;P1;durP1;ratioP1;P2;durP2;ratioP2
55915;SDS011;41826;53.246;-6.670;2023-09-18T00:01:43;3.10;;;2.80;;
55915;SDS011;41826;53.246;-6.670;2023-09-18T00:04:09;4.68;;;4.28;;
55915;SDS011;41826;53.246;-6.670;2023-09-18T00:06:34;4.10;;;3.78;;
55915;SDS011;41826;53.246;-6.670;2023-09-18T00:09:00;2.70;;;2.50;;
55915;SDS011;41826;53.246;-6.670;2023-09-18T00:11:25;4.50;;;4.10;;
55915;SDS011;41826;53.246;-6.670;2023-09-18T00:13:51;2.70;;;2.50;;
55915;SDS011;41826;53.246;-6.670;2023-09-18T00:16:16;2.47;;;2.30;;
55915;SDS011;41826;53.246;-6.670;2023-09-18T00:18:42;3.45;;;2.67;;
55915;SDS011;41826;53.246;-6.670;2023-09-18T00:21:09;2.80;;;2.60;;
55915;SDS011;41826;53.246;-6.670;2023-09-18T00:23:35;3.00;;;2.80;;
55915;SDS011;41826;53.246;-6.670;2023-09-18T00:26:01;2.40;;;2.30;;
55915;SDS011;41826;53.246;-6.670;2023-09-18T00:28:27;2.75;;;2.55;;
55915;SDS011;41826;53.246;-6.670;2023-09-18T00:30:52;5.93;;;5.10;;
55915;SDS011;41826;53.246;-6.670;2023-09-18T00:33:18;2.83;;;2.63;;
55915;SDS011;41826;53.246;-6.670;2023-09-18T00:35:48;2.55;;;2.38;;
55915;SDS011;41826;53.246;-6.670;2023-09-18T00:38:15;2.90;;;2.70;;
55915;SDS011;41826;53.246;-6.670;2023-09-18T00:40:41;3.88;;;3.55;;
55915;SDS011;41826;53.246;-6.670;2023-09-18T00:43:07;3.15;;;2.42;;
55915;SDS011;41826;53.246;-6.670;2023-09-18T00:45:33;2.70;;;2.50;;
55915;SDS011;41826;53.246;-6.670;2023-09-18T00:48:00;2.50;;;2.30;;
55915;SDS011;41826;53.246;-6.670;2023-09-18T00:50:25;2.90;;;2.60;;
55915;SDS011;41826;53.246;-6.670;2023-09-18T00:52:51;2.10;;;2.00;;
55915;SDS011;41826;53.246;-6.670;2023-09-18T00:55:17;14.50;;;9.30;;
55915;SDS011;41826;53.246;-6.670;2023-09-18T00:57:43;2.50;;;2.40;;
55915;SDS011;41826;53.246;-6.670;2023-09-18T01:00:09;4.43;;;4.03;;
55915;SDS011;41826;53.246;-6.670;2023-09-18T01:02:40;2.70;;;2.50;;
55915;SDS011;41826;53.246;-6.670;2023-09-18T01:05:06;16.10;;;11.93;;
55915;SDS011;41826;53.246;-6.670;2023-09-18T01:07:31;3.80;;;3.50;;
55915;SDS011;41826;53.246;-6.670;2023-09-18T01:09:57;6.63;;;5.90;;
55915;SDS011;41826;53.246;-6.670;2023-09-18T01:15:12;2.42;;;2.33;;
55915;SDS011;41826;53.246;-6.670;2023-09-18T01:17:46;2.60;;;2.40;;
55915;SDS011;41826;53.246;-6.670;2023-09-18T01:20:12;7.05;;;5.72;;
55915;SDS011;41826;53.246;-6.670;2023-09-18T01:22:38;2.33;;;2.15;;
55915;SDS011;41826;53.246;-6.670;2023-09-18T01:25:03;5.57;;;4.97;;
55915;SDS011;41826;53.246;-6.670;2023-09-18T01:27:30;11.65;;;7.18;;
55915;SDS011;41826;53.246;-6.670;2023-09-18T01:29:56;3.17;;;2.88;;
55915;SDS011;41826;53.246;-6.670;2023-09-18T01:34:54;5.68;;;5.05;;
55915;SDS011;41826;53.246;-6.670;2023-09-18T01:37:23;5.25;;;4.65;;
55915;SDS011;41826;53.246;-6.670;2023-09-18T01:39:51;3.22;;;3.00;;
55915;SDS011;41826;53.246;-6.670;2023-09-18T01:42:18;5.75;;;4.70;;
55915;SDS011;41826;53.246;-6.670;2023-09-18T01:44:44;9.10;;;4.65;;
55915;SDS011;41826;53.246;-6.670;2023-09-18T01:47:11;3.67;;;3.38;;
55915;SDS011;41826;53.246;-6.670;2023-09-18T01:49:39;3.28;;;2.90;;
55915;SDS011;41826;53.246;-6.670;2023-09-18T01:52:06;6.60;;;4.82;;
55915;SDS011;41826;53.246;-6.670;2023-09-18T01:54:32;5.38;;;3.83;;
55915;SDS011;41826;53.246;-6.670;2023-09-18T01:56:58;4.07;;;3.65;;
55915;SDS011;41826;53.246;-6.670;2023-09-18T01:59:24;4.55;;;4.15;;
55915;SDS011;41826;53.246;-6.670;2023-09-18T02:01:50;5.65;;;3.70;;
55915;SDS011;41826;53.246;-6.670;2023-09-18T02:04:17;4.22;;;3.50;;
55915;SDS011;41826;53.246;-6.670;2023-09-18T02:06:43;4.15;;;3.75;;
55915;SDS011;41826;53.246;-6.670;2023-09-18T02:09:09;4.75;;;3.65;;
55915;SDS011;41826;53.246;-6.670;2023-09-18T02:11:38;5.55;;;4.00;;
55915;SDS011;41826;53.246;-6.670;2023-09-18T02:14:04;9.32;;;5.80;;
55915;SDS011;41826;53.246;-6.670;2023-09-18T02:16:32;5.20;;;4.68;;
55915;SDS011;41826;53.246;-6.670;2023-09-18T02:19:01;4.63;;;3.75;;
55915;SDS011;41826;53.246;-6.670;2023-09-18T02:21:27;4.53;;;3.60;;
55915;SDS011;41826;53.246;-6.670;2023-09-18T02:23:53;3.88;;;3.28;;
55915;SDS011;41826;53.246;-6.670;2023-09-18T02:26:19;3.53;;;3.22;;
55915;SDS011;41826;53.246;-6.670;2023-09-18T02:28:45;3.20;;;2.70;;
55915;SDS011;41826;53.246;-6.670;2023-09-18T02:31:10;3.25;;;2.95;;
55915;SDS011;41826;53.246;-6.670;2023-09-18T02:33:36;3.17;;;2.97;;
55915;SDS011;41826;53.246;-6.670;2023-09-18T02:36:04;3.53;;;2.42;;
55915;SDS011;41826;53.246;-6.670;2023-09-18T02:38:30;2.85;;;2.65;;
55915;SDS011;41826;53.246;-6.670;2023-09-18T02:40:56;3.00;;;2.38;;
55915;SDS011;41826;53.246;-6.670;2023-09-18T02:43:22;3.92;;;2.40;;
55915;SDS011;41826;53.246;-6.670;2023-09-18T02:45:48;2.13;;;1.92;;
55915;SDS011;41826;53.246;-6.670;2023-09-18T02:48:14;1.60;;;1.50;;
55915;SDS011;41826;53.246;-6.670;2023-09-18T02:50:40;1.63;;;1.52;;
55915;SDS011;41826;53.246;-6.670;2023-09-18T02:53:06;1.70;;;1.60;;
55915;SDS011;41826;53.246;-6.670;2023-09-18T02:55:33;1.67;;;1.58;;
55915;SDS011;41826;53.246;-6.670;2023-09-18T02:57:59;1.33;;;1.17;;
55915;SDS011;41826;53.246;-6.670;2023-09-18T03:00:24;1.52;;;1.42;;
55915;SDS011;41826;53.246;-6.670;2023-09-18T03:02:50;1.00;;;1.00;;
55915;SDS011;41826;53.246;-6.670;2023-09-18T03:05:15;1.30;;;1.20;;
55915;SDS011;41826;53.246;-6.670;2023-09-18T03:07:40;1.30;;;1.05;;
55915;SDS011;41826;53.246;-6.670;2023-09-18T03:10:06;0.95;;;0.90;;
55915;SDS011;41826;53.246;-6.670;2023-09-18T03:12:32;1.45;;;1.35;;
55915;SDS011;41826;53.246;-6.670;2023-09-18T03:14:58;2.13;;;1.17;;
55915;SDS011;41826;53.246;-6.670;2023-09-18T03:17:24;1.92;;;1.00;;
55915;SDS011;41826;53.246;-6.670;2023-09-18T03:19:49;3.75;;;1.60;;
55915;SDS011;41826;53.246;-6.670;2023-09-18T03:22:15;2.03;;;0.93;;
55915;SDS011;41826;53.246;-6.670;2023-09-18T03:24:41;1.33;;;1.08;;
55915;SDS011;41826;53.246;-6.670;2023-09-18T03:27:06;1.30;;;0.90;;
55915;SDS011;41826;53.246;-6.670;2023-09-18T03:29:31;2.55;;;1.63;;
55915;SDS011;41826;53.246;-6.670;2023-09-18T03:31:57;1.23;;;0.85;;
55915;SDS011;41826;53.246;-6.670;2023-09-18T03:34:24;0.95;;;0.90;;
55915;SDS011;41826;53.246;-6.670;2023-09-18T03:36:52;1.15;;;1.08;;
55915;SDS011;41826;53.246;-6.670;2023-09-18T03:39:18;0.70;;;0.70;;
55915;SDS011;41826;53.246;-6.670;2023-09-18T03:41:43;1.58;;;1.10;;
55915;SDS011;41826;53.246;-6.670;2023-09-18T03:44:09;4.13;;;1.00;;
55915;SDS011;41826;53.246;-6.670;2023-09-18T03:46:35;0.95;;;0.95;;
55915;SDS011;41826;53.246;-6.670;2023-09-18T03:49:01;4.10;;;1.30;;
55915;SDS011;41826;53.246;-6.670;2023-09-18T03:51:27;2.35;;;1.10;;
55915;SDS011;41826;53.246;-6.670;2023-09-18T03:53:56;1.83;;;1.20;;
55915;SDS011;41826;53.246;-6.670;2023-09-18T03:56:21;1.25;;;1.15;;
55915;SDS011;41826;53.246;-6.670;2023-09-18T03:58:47;1.75;;;1.42;;
55915;SDS011;41826;53.246;-6.670;2023-09-18T04:01:15;1.75;;;0.98;;
55915;SDS011;41826;53.246;-6.670;2023-09-18T04:03:40;1.10;;;1.00;;
55915;SDS011;41826;53.246;-6.670;2023-09-18T04:06:06;2.65;;;1.20;;
55915;SDS011;41826;53.246;-6.670;2023-09-18T04:08:31;2.28;;;1.10;;
55915;SDS011;41826;53.246;-6.670;2023-09-18T04:10:57;1.08;;;0.98;;
55915;SDS011;41826;53.246;-6.670;2023-09-18T04:13:23;1.52;;;1.20;;
55915;SDS011;41826;53.246;-6.670;2023-09-18T04:15:48;1.27;;;1.00;;
55915;SDS011;41826;53.246;-6.670;2023-09-18T04:18:14;2.30;;;1.40;;
55915;SDS011;41826;53.246;-6.670;2023-09-18T04:20:39;1.67;;;1.20;;
55915;SDS011;41826;53.246;-6.670;2023-09-18T04:25:49;3.20;;;1.20;;
55915;SDS011;41826;53.246;-6.670;2023-09-18T04:28:17;1.13;;;0.85;;
55915;SDS011;41826;53.246;-6.670;2023-09-18T04:30:44;1.55;;;1.25;;
55915;SDS011;41826;53.246;-6.670;2023-09-18T04:33:11;0.80;;;0.80;;
55915;SDS011;41826;53.246;-6.670;2023-09-18T04:35:38;1.20;;;1.10;;
55915;SDS011;41826;53.246;-6.670;2023-09-18T04:38:05;1.40;;;0.93;;
55915;SDS011;41826;53.246;-6.670;2023-09-18T04:40:31;2.10;;;1.25;;
55915;SDS011;41826;53.246;-6.670;2023-09-18T04:43:00;2.08;;;1.05;;
55915;SDS011;41826;53.246;-6.670;2023-09-18T04:45:26;1.08;;;0.98;;
55915;SDS011;41826;53.246;-6.670;2023-09-18T04:47:54;1.65;;;1.30;;
55915;SDS011;41826;53.246;-6.670;2023-09-18T04:50:20;5.40;;;1.98;;
55915;SDS011;41826;53.246;-6.670;2023-09-18T04:52:45;1.65;;;1.10;;
55915;SDS011;41826;53.246;-6.670;2023-09-18T04:55:10;1.05;;;0.90;;
55915;SDS011;41826;53.246;-6.670;2023-09-18T04:57:37;1.92;;;0.93;;
55915;SDS011;41826;53.246;-6.670;2023-09-18T05:00:03;1.67;;;1.20;;
55915;SDS011;41826;53.246;-6.670;2023-09-18T05:02:33;1.17;;;0.80;;
55915;SDS011;41826;53.246;-6.670;2023-09-18T05:04:59;2.55;;;1.02;;
55915;SDS011;41826;53.246;-6.670;2023-09-18T05:07:25;0.80;;;0.80;;
55915;SDS011;41826;53.246;-6.670;2023-09-18T05:09:50;2.65;;;0.95;;
55915;SDS011;41826;53.246;-6.670;2023-09-18T05:12:16;0.70;;;0.70;;
55915;SDS011;41826;53.246;-6.670;2023-09-18T05:14:42;1.17;;;0.88;;
55915;SDS011;41826;53.246;-6.670;2023-09-18T05:17:13;0.73;;;0.73;;
55915;SDS011;41826;53.246;-6.670;2023-09-18T05:19:40;1.03;;;0.70;;
55915;SDS011;41826;53.246;-6.670;2023-09-18T05:22:05;0.70;;;0.57;;
55915;SDS011;41826;53.246;-6.670;2023-09-18T05:24:31;2.08;;;0.70;;
55915;SDS011;41826;53.246;-6.670;2023-09-18T05:26:57;1.38;;;0.75;;
55915;SDS011;41826;53.246;-6.670;2023-09-18T05:29:22;2.50;;;0.63;;
55915;SDS011;41826;53.246;-6.670;2023-09-18T05:31:49;1.58;;;0.60;;
55915;SDS011;41826;53.246;-6.670;2023-09-18T05:34:14;1.58;;;0.68;;
55915;SDS011;41826;53.246;-6.670;2023-09-18T05:36:39;1.10;;;0.68;;
55915;SDS011;41826;53.246;-6.670;2023-09-18T05:39:05;2.40;;;0.70;;
55915;SDS011;41826;53.246;-6.670;2023-09-18T05:41:36;1.77;;;0.85;;
55915;SDS011;41826;53.246;-6.670;2023-09-18T05:44:02;5.25;;;0.80;;
55915;SDS011;41826;53.246;-6.670;2023-09-18T05:46:30;2.08;;;0.60;;
55915;SDS011;41826;53.246;-6.670;2023-09-18T05:48:55;0.88;;;0.60;;
55915;SDS011;41826;53.246;-6.670;2023-09-18T05:51:22;0.70;;;0.70;;
55915;SDS011;41826;53.246;-6.670;2023-09-18T05:53:47;1.48;;;0.70;;
55915;SDS011;41826;53.246;-6.670;2023-09-18T05:56:13;1.40;;;0.70;;
55915;SDS011;41826;53.246;-6.670;2023-09-18T05:58:39;2.00;;;0.70;;
55915;SDS011;41826;53.246;-6.670;2023-09-18T06:01:06;1.45;;;0.60;;
55915;SDS011;41826;53.246;-6.670;2023-09-18T06:03:32;0.77;;;0.50;;
55915;SDS011;41826;53.246;-6.670;2023-09-18T06:06:00;2.35;;;0.80;;
55915;SDS011;41826;53.246;-6.670;2023-09-18T06:08:29;3.50;;;0.85;;
55915;SDS011;41826;53.246;-6.670;2023-09-18T06:10:55;0.90;;;0.55;;
55915;SDS011;41826;53.246;-6.670;2023-09-18T06:13:21;1.00;;;0.50;;
55915;SDS011;41826;53.246;-6.670;2023-09-18T06:15:49;3.60;;;0.77;;
55915;SDS011;41826;53.246;-6.670;2023-09-18T06:18:15;0.73;;;0.43;;
55915;SDS011;41826;53.246;-6.670;2023-09-18T06:20:41;0.68;;;0.50;;
55915;SDS011;41826;53.246;-6.670;2023-09-18T06:23:07;0.77;;;0.40;;
55915;SDS011;41826;53.246;-6.670;2023-09-18T06:25:33;0.68;;;0.55;;
55915;SDS011;41826;53.246;-6.670;2023-09-18T06:27:58;1.70;;;0.50;;
55915;SDS011;41826;53.246;-6.670;2023-09-18T06:30:25;0.40;;;0.40;;
55915;SDS011;41826;53.246;-6.670;2023-09-18T06:32:50;0.95;;;0.52;;
55915;SDS011;41826;53.246;-6.670;2023-09-18T06:35:17;1.88;;;0.50;;
55915;SDS011;41826;53.246;-6.670;2023-09-18T06:37:43;0.73;;;0.40;;
55915;SDS011;41826;53.246;-6.670;2023-09-18T06:40:08;1.10;;;0.50;;
55915;SDS011;41826;53.246;-6.670;2023-09-18T06:42:34;0.85;;;0.40;;
55915;SDS011;41826;53.246;-6.670;2023-09-18T06:44:59;1.95;;;0.50;;
55915;SDS011;41826;53.246;-6.670;2023-09-18T06:47:26;1.25;;;0.70;;
55915;SDS011;41826;53.246;-6.670;2023-09-18T06:49:51;0.77;;;0.40;;
55915;SDS011;41826;53.246;-6.670;2023-09-18T06:52:17;1.25;;;0.50;;
55915;SDS011;41826;53.246;-6.670;2023-09-18T06:54:42;0.50;;;0.50;;
55915;SDS011;41826;53.246;-6.670;2023-09-18T06:57:09;1.40;;;0.50;;
55915;SDS011;41826;53.246;-6.670;2023-09-18T06:59:34;0.82;;;0.60;;
55915;SDS011;41826;53.246;-6.670;2023-09-18T07:02:00;1.60;;;0.50;;
55915;SDS011;41826;53.246;-6.670;2023-09-18T07:04:26;2.97;;;0.50;;
55915;SDS011;41826;53.246;-6.670;2023-09-18T07:06:51;1.58;;;0.60;;
55915;SDS011;41826;53.246;-6.670;2023-09-18T07:09:18;0.73;;;0.57;;
55915;SDS011;41826;53.246;-6.670;2023-09-18T07:11:44;2.63;;;0.55;;
55915;SDS011;41826;53.246;-6.670;2023-09-18T07:14:10;1.92;;;0.60;;
55915;SDS011;41826;53.246;-6.670;2023-09-18T07:16:35;0.82;;;0.50;;
55915;SDS011;41826;53.246;-6.670;2023-09-18T07:19:00;0.47;;;0.47;;
55915;SDS011;41826;53.246;-6.670;2023-09-18T07:21:30;3.20;;;0.50;;
55915;SDS011;41826;53.246;-6.670;2023-09-18T07:23:55;1.15;;;0.50;;
55915;SDS011;41826;53.246;-6.670;2023-09-18T07:26:21;2.22;;;0.57;;
55915;SDS011;41826;53.246;-6.670;2023-09-18T07:28:46;2.30;;;0.60;;
55915;SDS011;41826;53.246;-6.670;2023-09-18T07:31:13;0.95;;;0.32;;
55915;SDS011;41826;53.246;-6.670;2023-09-18T07:33:39;1.00;;;0.55;;
55915;SDS011;41826;53.246;-6.670;2023-09-18T07:36:05;2.67;;;0.70;;
55915;SDS011;41826;53.246;-6.670;2023-09-18T07:38:31;3.60;;;1.30;;
55915;SDS011;41826;53.246;-6.670;2023-09-18T07:40:56;4.43;;;0.60;;
55915;SDS011;41826;53.246;-6.670;2023-09-18T07:43:23;1.35;;;0.50;;
55915;SDS011;41826;53.246;-6.670;2023-09-18T07:45:49;0.95;;;0.40;;
55915;SDS011;41826;53.246;-6.670;2023-09-18T07:48:15;1.55;;;0.60;;
55915;SDS011;41826;53.246;-6.670;2023-09-18T07:50:44;2.03;;;0.77;;
55915;SDS011;41826;53.246;-6.670;2023-09-18T07:53:10;2.58;;;0.65;;
55915;SDS011;41826;53.246;-6.670;2023-09-18T07:55:36;4.65;;;1.27;;
55915;SDS011;41826;53.246;-6.670;2023-09-18T07:58:01;3.22;;;0.65;;
55915;SDS011;41826;53.246;-6.670;2023-09-18T08:00:28;5.40;;;0.80;;
55915;SDS011;41826;53.246;-6.670;2023-09-18T08:02:54;1.30;;;0.60;;
55915;SDS011;41826;53.246;-6.670;2023-09-18T08:05:25;1.13;;;0.50;;
55915;SDS011;41826;53.246;-6.670;2023-09-18T08:07:56;2.50;;;0.80;;
55915;SDS011;41826;53.246;-6.670;2023-09-18T08:10:24;2.67;;;0.63;;
55915;SDS011;41826;53.246;-6.670;2023-09-18T08:12:50;3.80;;;0.65;;
55915;SDS011;41826;53.246;-6.670;2023-09-18T08:15:17;1.50;;;0.50;;
55915;SDS011;41826;53.246;-6.670;2023-09-18T08:17:46;3.17;;;0.75;;
55915;SDS011;41826;53.246;-6.670;2023-09-18T08:20:13;2.47;;;0.63;;
55915;SDS011;41826;53.246;-6.670;2023-09-18T08:22:40;1.60;;;0.60;;
55915;SDS011;41826;53.246;-6.670;2023-09-18T08:25:06;1.85;;;0.60;;
55915;SDS011;41826;53.246;-6.670;2023-09-18T08:27:35;1.88;;;0.70;;
55915;SDS011;41826;53.246;-6.670;2023-09-18T08:30:02;4.70;;;0.63;;
55915;SDS011;41826;53.246;-6.670;2023-09-18T08:32:28;0.93;;;0.52;;
55915;SDS011;41826;53.246;-6.670;2023-09-18T08:34:55;3.72;;;0.80;;
55915;SDS011;41826;53.246;-6.670;2023-09-18T08:37:20;3.47;;;0.77;;
55915;SDS011;41826;53.246;-6.670;2023-09-18T08:39:46;7.22;;;0.88;;
55915;SDS011;41826;53.246;-6.670;2023-09-18T08:42:11;2.63;;;0.50;;
55915;SDS011;41826;53.246;-6.670;2023-09-18T08:44:38;2.33;;;0.50;;
55915;SDS011;41826;53.246;-6.670;2023-09-18T08:47:07;2.25;;;0.70;;
55915;SDS011;41826;53.246;-6.670;2023-09-18T08:49:35;4.10;;;0.75;;
55915;SDS011;41826;53.246;-6.670;2023-09-18T08:52:02;3.33;;;0.63;;
55915;SDS011;41826;53.246;-6.670;2023-09-18T08:54:28;3.13;;;0.73;;
55915;SDS011;41826;53.246;-6.670;2023-09-18T08:56:54;2.22;;;0.68;;
55915;SDS011;41826;53.246;-6.670;2023-09-18T08:59:23;3.80;;;1.00;;
55915;SDS011;41826;53.246;-6.670;2023-09-18T09:01:50;4.47;;;1.00;;
55915;SDS011;41826;53.246;-6.670;2023-09-18T09:04:15;3.78;;;0.70;;
55915;SDS011;41826;53.246;-6.670;2023-09-18T09:06:41;3.50;;;1.30;;
55915;SDS011;41826;53.246;-6.670;2023-09-18T09:09:06;5.30;;;0.80;;
55915;SDS011;41826;53.246;-6.670;2023-09-18T09:11:33;5.85;;;0.98;;
55915;SDS011;41826;53.246;-6.670;2023-09-18T09:14:12;4.82;;;1.75;;
55915;SDS011;41826;53.246;-6.670;2023-09-18T09:16:46;4.60;;;1.23;;
55915;SDS011;41826;53.246;-6.670;2023-09-18T09:19:13;8.88;;;1.20;;
55915;SDS011;41826;53.246;-6.670;2023-09-18T09:21:41;1.55;;;0.50;;
55915;SDS011;41826;53.246;-6.670;2023-09-18T09:24:08;4.72;;;0.85;;
55915;SDS011;41826;53.246;-6.670;2023-09-18T09:26:38;3.78;;;0.90;;
55915;SDS011;41826;53.246;-6.670;2023-09-18T09:29:15;3.10;;;0.75;;
55915;SDS011;41826;53.246;-6.670;2023-09-18T09:31:43;5.22;;;1.10;;
55915;SDS011;41826;53.246;-6.670;2023-09-18T09:34:10;5.63;;;0.85;;
55915;SDS011;41826;53.246;-6.670;2023-09-18T09:36:35;4.75;;;0.65;;
55915;SDS011;41826;53.246;-6.670;2023-09-18T09:39:00;9.85;;;1.33;;
55915;SDS011;41826;53.246;-6.670;2023-09-18T09:41:31;6.95;;;1.05;;
55915;SDS011;41826;53.246;-6.670;2023-09-18T09:43:57;3.17;;;0.85;;
55915;SDS011;41826;53.246;-6.670;2023-09-18T09:46:23;3.83;;;0.88;;
55915;SDS011;41826;53.246;-6.670;2023-09-18T09:51:26;7.25;;;1.17;;
55915;SDS011;41826;53.246;-6.670;2023-09-18T09:53:52;4.05;;;0.80;;
55915;SDS011;41826;53.246;-6.670;2023-09-18T09:56:17;6.07;;;1.00;;
55915;SDS011;41826;53.246;-6.670;2023-09-18T09:59:07;2.63;;;0.90;;
55915;SDS011;41826;53.246;-6.670;2023-09-18T10:01:36;4.68;;;1.25;;
55915;SDS011;41826;53.246;-6.670;2023-09-18T10:04:03;5.32;;;1.17;;
55915;SDS011;41826;53.246;-6.670;2023-09-18T10:06:31;7.18;;;0.98;;
55915;SDS011;41826;53.246;-6.670;2023-09-18T10:08:59;6.88;;;0.95;;
55915;SDS011;41826;53.246;-6.670;2023-09-18T10:11:26;6.32;;;0.90;;
55915;SDS011;41826;53.246;-6.670;2023-09-18T10:13:57;5.60;;;1.00;;
55915;SDS011;41826;53.246;-6.670;2023-09-18T10:16:25;5.53;;;0.90;;
55915;SDS011;41826;53.246;-6.670;2023-09-18T10:21:48;11.40;;;1.63;;
55915;SDS011;41826;53.246;-6.670;2023-09-18T10:24:25;6.60;;;0.95;;
55915;SDS011;41826;53.246;-6.670;2023-09-18T10:26:59;5.97;;;1.13;;
55915;SDS011;41826;53.246;-6.670;2023-09-18T10:29:28;4.57;;;1.40;;
55915;SDS011;41826;53.246;-6.670;2023-09-18T10:31:55;6.47;;;1.25;;
55915;SDS011;41826;53.246;-6.670;2023-09-18T10:34:21;5.68;;;2.00;;
55915;SDS011;41826;53.246;-6.670;2023-09-18T10:36:49;7.95;;;1.67;;
55915;SDS011;41826;53.246;-6.670;2023-09-18T10:39:16;4.85;;;0.90;;
55915;SDS011;41826;53.246;-6.670;2023-09-18T10:41:51;4.28;;;0.80;;
55915;SDS011;41826;53.246;-6.670;2023-09-18T10:44:17;4.28;;;1.02;;
55915;SDS011;41826;53.246;-6.670;2023-09-18T10:46:47;8.80;;;1.60;;
55915;SDS011;41826;53.246;-6.670;2023-09-18T10:49:14;2.05;;;0.98;;
55915;SDS011;41826;53.246;-6.670;2023-09-18T10:51:40;3.95;;;1.08;;
55915;SDS011;41826;53.246;-6.670;2023-09-18T10:54:10;4.63;;;1.10;;
55915;SDS011;41826;53.246;-6.670;2023-09-18T10:56:40;3.90;;;0.90;;
55915;SDS011;41826;53.246;-6.670;2023-09-18T10:59:07;4.22;;;1.25;;
55915;SDS011;41826;53.246;-6.670;2023-09-18T11:01:34;7.95;;;0.98;;
55915;SDS011;41826;53.246;-6.670;2023-09-18T11:04:02;4.78;;;0.80;;
55915;SDS011;41826;53.246;-6.670;2023-09-18T11:06:29;6.30;;;1.02;;
55915;SDS011;41826;53.246;-6.670;2023-09-18T11:09:02;6.57;;;1.10;;
55915;SDS011;41826;53.246;-6.670;2023-09-18T11:11:31;5.43;;;1.15;;
55915;SDS011;41826;53.246;-6.670;2023-09-18T11:14:00;3.65;;;0.68;;
55915;SDS011;41826;53.246;-6.670;2023-09-18T11:18:52;9.23;;;1.30;;
55915;SDS011;41826;53.246;-6.670;2023-09-18T11:21:24;6.75;;;1.30;;
55915;SDS011;41826;53.246;-6.670;2023-09-18T11:26:32;6.47;;;0.90;;
55915;SDS011;41826;53.246;-6.670;2023-09-18T11:31:46;7.65;;;1.10;;
55915;SDS011;41826;53.246;-6.670;2023-09-18T11:36:56;4.18;;;0.70;;
55915;SDS011;41826;53.246;-6.670;2023-09-18T11:44:44;2.78;;;0.73;;
55915;SDS011;41826;53.246;-6.670;2023-09-18T11:47:14;5.13;;;1.67;;
55915;SDS011;41826;53.246;-6.670;2023-09-18T11:49:57;5.40;;;0.85;;
55915;SDS011;41826;53.246;-6.670;2023-09-18T11:52:24;6.68;;;1.10;;
55915;SDS011;41826;53.246;-6.670;2023-09-18T11:54:51;3.72;;;1.02;;
55915;SDS011;41826;53.246;-6.670;2023-09-18T11:57:18;4.63;;;1.35;;
55915;SDS011;41826;53.246;-6.670;2023-09-18T11:59:47;6.15;;;0.82;;
55915;SDS011;41826;53.246;-6.670;2023-09-18T12:02:13;4.82;;;1.00;;
55915;SDS011;41826;53.246;-6.670;2023-09-18T12:04:46;8.05;;;1.23;;
55915;SDS011;41826;53.246;-6.670;2023-09-18T12:07:13;3.13;;;0.68;;
55915;SDS011;41826;53.246;-6.670;2023-09-18T12:09:38;1.77;;;0.70;;
55915;SDS011;41826;53.246;-6.670;2023-09-18T12:12:05;5.05;;;0.85;;
55915;SDS011;41826;53.246;-6.670;2023-09-18T12:14:32;2.10;;;0.50;;
55915;SDS011;41826;53.246;-6.670;2023-09-18T12:17:01;3.47;;;0.90;;
55915;SDS011;41826;53.246;-6.670;2023-09-18T12:19:29;5.55;;;1.02;;
55915;SDS011;41826;53.246;-6.670;2023-09-18T12:21:55;5.45;;;1.00;;
55915;SDS011;41826;53.246;-6.670;2023-09-18T12:24:21;2.03;;;0.57;;
55915;SDS011;41826;53.246;-6.670;2023-09-18T12:26:47;4.93;;;0.70;;
55915;SDS011;41826;53.246;-6.670;2023-09-18T12:29:13;3.08;;;0.60;;
55915;SDS011;41826;53.246;-6.670;2023-09-18T12:31:39;3.78;;;0.90;;
55915;SDS011;41826;53.246;-6.670;2023-09-18T12:34:05;2.58;;;0.73;;
55915;SDS011;41826;53.246;-6.670;2023-09-18T12:36:42;2.25;;;0.60;;
55915;SDS011;41826;53.246;-6.670;2023-09-18T12:39:08;2.40;;;0.73;;
55915;SDS011;41826;53.246;-6.670;2023-09-18T12:41:35;3.60;;;0.73;;
55915;SDS011;41826;53.246;-6.670;2023-09-18T12:44:01;3.50;;;0.70;;
55915;SDS011;41826;53.246;-6.670;2023-09-18T12:46:28;1.98;;;0.50;;
55915;SDS011;41826;53.246;-6.670;2023-09-18T12:48:55;1.50;;;0.60;;
55915;SDS011;41826;53.246;-6.670;2023-09-18T12:51:28;1.27;;;0.50;;
55915;SDS011;41826;53.246;-6.670;2023-09-18T12:54:02;2.00;;;0.70;;
55915;SDS011;41826;53.246;-6.670;2023-09-18T12:56:31;0.87;;;0.40;;
55915;SDS011;41826;53.246;-6.670;2023-09-18T12:58:57;3.03;;;0.63;;
55915;SDS011;41826;53.246;-6.670;2023-09-18T13:01:24;2.47;;;0.40;;
55915;SDS011;41826;53.246;-6.670;2023-09-18T13:03:49;0.52;;;0.30;;
55915;SDS011;41826;53.246;-6.670;2023-09-18T13:06:19;2.53;;;0.52;;
55915;SDS011;41826;53.246;-6.670;2023-09-18T13:08:44;2.70;;;0.40;;
55915;SDS011;41826;53.246;-6.670;2023-09-18T13:11:11;0.98;;;0.73;;
55915;SDS011;41826;53.246;-6.670;2023-09-18T13:13:39;0.65;;;0.35;;
55915;SDS011;41826;53.246;-6.670;2023-09-18T13:16:05;2.08;;;0.45;;
55915;SDS011;41826;53.246;-6.670;2023-09-18T13:18:33;4.43;;;0.57;;
55915;SDS011;41826;53.246;-6.670;2023-09-18T13:20:59;0.93;;;0.40;;
55915;SDS011;41826;53.246;-6.670;2023-09-18T13:23:31;1.38;;;0.47;;
55915;SDS011;41826;53.246;-6.670;2023-09-18T13:26:04;2.28;;;0.50;;
55915;SDS011;41826;53.246;-6.670;2023-09-18T13:28:30;1.85;;;0.40;;
55915;SDS011;41826;53.246;-6.670;2023-09-18T13:30:57;3.03;;;0.50;;
55915;SDS011;41826;53.246;-6.670;2023-09-18T13:33:24;0.68;;;0.50;;
55915;SDS011;41826;53.246;-6.670;2023-09-18T13:35:51;2.85;;;0.68;;
55915;SDS011;41826;53.246;-6.670;2023-09-18T13:38:18;1.23;;;0.30;;
55915;SDS011;41826;53.246;-6.670;2023-09-18T13:40:44;1.85;;;0.60;;
55915;SDS011;41826;53.246;-6.670;2023-09-18T13:43:12;1.90;;;0.68;;
55915;SDS011;41826;53.246;-6.670;2023-09-18T13:45:40;1.80;;;0.50;;
55915;SDS011;41826;53.246;-6.670;2023-09-18T13:48:06;3.10;;;0.80;;
55915;SDS011;41826;53.246;-6.670;2023-09-18T13:50:32;2.28;;;0.60;;
55915;SDS011;41826;53.246;-6.670;2023-09-18T13:52:58;0.90;;;0.60;;
55915;SDS011;41826;53.246;-6.670;2023-09-18T13:55:25;2.85;;;0.55;;
55915;SDS011;41826;53.246;-6.670;2023-09-18T13:57:50;1.13;;;0.40;;
55915;SDS011;41826;53.246;-6.670;2023-09-18T14:00:16;4.07;;;0.60;;
55915;SDS011;41826;53.246;-6.670;2023-09-18T14:02:42;2.65;;;0.43;;
55915;SDS011;41826;53.246;-6.670;2023-09-18T14:05:08;1.42;;;0.77;;
55915;SDS011;41826;53.246;-6.670;2023-09-18T14:07:34;3.38;;;0.47;;
55915;SDS011;41826;53.246;-6.670;2023-09-18T14:10:00;2.85;;;0.60;;
55915;SDS011;41826;53.246;-6.670;2023-09-18T14:12:28;4.82;;;1.00;;
55915;SDS011;41826;53.246;-6.670;2023-09-18T14:14:57;1.48;;;0.85;;
55915;SDS011;41826;53.246;-6.670;2023-09-18T14:17:22;3.00;;;0.82;;
55915;SDS011;41826;53.246;-6.670;2023-09-18T14:19:48;3.15;;;0.52;;
55915;SDS011;41826;53.246;-6.670;2023-09-18T14:22:14;2.35;;;0.50;;
55915;SDS011;41826;53.246;-6.670;2023-09-18T14:24:39;3.28;;;0.52;;
55915;SDS011;41826;53.246;-6.670;2023-09-18T14:27:05;2.97;;;0.65;;
55915;SDS011;41826;53.246;-6.670;2023-09-18T14:29:32;3.80;;;0.70;;
55915;SDS011;41826;53.246;-6.670;2023-09-18T14:31:59;2.10;;;0.60;;
55915;SDS011;41826;53.246;-6.670;2023-09-18T14:34:25;3.15;;;0.60;;
55915;SDS011;41826;53.246;-6.670;2023-09-18T14:36:50;2.42;;;0.60;;
55915;SDS011;41826;53.246;-6.670;2023-09-18T14:39:16;1.38;;;0.43;;
55915;SDS011;41826;53.246;-6.670;2023-09-18T14:41:41;2.58;;;0.60;;
55915;SDS011;41826;53.246;-6.670;2023-09-18T14:44:07;7.30;;;0.85;;
55915;SDS011;41826;53.246;-6.670;2023-09-18T14:46:34;2.45;;;0.40;;
55915;SDS011;41826;53.246;-6.670;2023-09-18T14:49:00;1.80;;;0.40;;
55915;SDS011;41826;53.246;-6.670;2023-09-18T14:51:26;2.58;;;0.82;;
55915;SDS011;41826;53.246;-6.670;2023-09-18T14:53:55;2.03;;;0.52;;
55915;SDS011;41826;53.246;-6.670;2023-09-18T14:56:24;3.38;;;0.60;;
55915;SDS011;41826;53.246;-6.670;2023-09-18T14:58:49;4.60;;;0.88;;
55915;SDS011;41826;53.246;-6.670;2023-09-18T15:01:16;2.53;;;0.75;;